createdAt,value
2019-06-26T00:00:24.422Z,1016.86
2019-06-26T00:01:28.826Z,1016.88
2019-06-26T00:02:33.286Z,1016.87
2019-06-26T00:03:37.758Z,1016.87
2019-06-26T00:04:42.232Z,1016.87
2019-06-26T00:05:46.694Z,1016.87
2019-06-26T00:06:51.203Z,1016.87
2019-06-26T00:07:55.658Z,1016.84
2019-06-26T00:09:00.140Z,1016.83
2019-06-26T00:10:04.578Z,1016.83
2019-06-26T00:11:09.081Z,1016.83
2019-06-26T00:12:13.470Z,1016.81
2019-06-26T00:13:26.135Z,1016.81
2019-06-26T00:14:22.374Z,1016.80
2019-06-26T00:15:26.909Z,1016.84
2019-06-26T00:16:31.322Z,1016.83
2019-06-26T00:17:35.747Z,1016.82
2019-06-26T00:18:40.283Z,1016.82
2019-06-26T00:19:44.674Z,1016.84
2019-06-26T00:20:49.144Z,1016.83
2019-06-26T00:21:53.665Z,1016.83
2019-06-26T00:22:58.058Z,1016.84
2019-06-26T00:24:02.558Z,1016.82
2019-06-26T00:25:06.992Z,1016.79
2019-06-26T00:26:11.453Z,1016.80
2019-06-26T00:27:15.932Z,1016.81
2019-06-26T00:28:20.413Z,1016.81
2019-06-26T00:29:24.895Z,1016.79
2019-06-26T00:30:29.289Z,1016.78
2019-06-26T00:31:33.774Z,1016.78
2019-06-26T00:32:38.209Z,1016.77
2019-06-26T00:33:42.706Z,1016.78
2019-06-26T00:34:47.182Z,1016.77
2019-06-26T00:35:51.723Z,1016.75
2019-06-26T00:36:56.240Z,1016.76
2019-06-26T00:38:00.574Z,1016.74
2019-06-26T00:39:05.033Z,1016.75
2019-06-26T00:40:09.453Z,1016.73
2019-06-26T00:41:13.922Z,1016.71
2019-06-26T00:42:18.388Z,1016.70
2019-06-26T00:43:22.839Z,1016.71
2019-06-26T00:44:27.340Z,1016.71
2019-06-26T00:45:31.765Z,1016.70
2019-06-26T00:46:36.203Z,1016.70
2019-06-26T00:47:40.667Z,1016.71
2019-06-26T00:48:45.113Z,1016.71
2019-06-26T00:49:49.603Z,1016.72
2019-06-26T00:50:54.031Z,1016.74
2019-06-26T00:51:58.453Z,1016.72
2019-06-26T00:53:02.925Z,1016.71
2019-06-26T00:54:07.351Z,1016.71
2019-06-26T00:55:11.850Z,1016.69
2019-06-26T00:56:16.278Z,1016.69
2019-06-26T00:57:20.712Z,1016.70
2019-06-26T00:58:25.178Z,1016.68
2019-06-26T00:59:29.616Z,1016.67
2019-06-26T01:00:34.058Z,1016.67
2019-06-26T01:01:38.515Z,1016.66
2019-06-26T01:02:42.943Z,1016.66
2019-06-26T01:03:47.336Z,1016.65
2019-06-26T01:04:51.825Z,1016.65
2019-06-26T01:05:56.401Z,1016.64
2019-06-26T01:07:00.924Z,1016.65
2019-06-26T01:08:05.310Z,1016.64
2019-06-26T01:09:09.735Z,1016.64
2019-06-26T01:10:14.191Z,1016.64
2019-06-26T01:11:21.585Z,1016.63
2019-06-26T01:12:23.081Z,1016.59
2019-06-26T01:13:27.648Z,1016.59
2019-06-26T01:14:32.049Z,1016.60
2019-06-26T01:15:36.556Z,1016.60
2019-06-26T01:16:40.978Z,1016.57
2019-06-26T01:17:45.427Z,1016.57
2019-06-26T01:18:49.877Z,1016.55
2019-06-26T01:19:54.288Z,1016.54
2019-06-26T01:20:58.740Z,1016.54
2019-06-26T01:22:03.467Z,1016.54
2019-06-26T01:23:07.677Z,1016.52
2019-06-26T01:24:12.243Z,1016.50
2019-06-26T01:25:16.613Z,1016.50
2019-06-26T01:26:21.054Z,1016.48
2019-06-26T01:27:25.446Z,1016.47
2019-06-26T01:28:29.959Z,1016.47
2019-06-26T01:29:34.395Z,1016.47
2019-06-26T01:30:38.874Z,1016.48
2019-06-26T01:31:43.267Z,1016.46
2019-06-26T01:32:47.702Z,1016.49
2019-06-26T01:33:52.109Z,1016.49
2019-06-26T01:34:56.532Z,1016.47
2019-06-26T01:36:01.067Z,1016.45
2019-06-26T01:37:05.443Z,1016.47
2019-06-26T01:38:09.870Z,1016.46
2019-06-26T01:39:14.272Z,1016.46
2019-06-26T01:40:18.730Z,1016.48
2019-06-26T01:41:23.299Z,1016.47
2019-06-26T01:42:27.679Z,1016.46
2019-06-26T01:43:32.199Z,1016.45
2019-06-26T01:44:36.538Z,1016.47
2019-06-26T01:45:41.039Z,1016.47
2019-06-26T01:46:45.438Z,1016.46
2019-06-26T01:47:49.871Z,1016.46
2019-06-26T01:48:54.379Z,1016.45
2019-06-26T01:49:58.793Z,1016.44
2019-06-26T01:51:03.210Z,1016.45
2019-06-26T01:52:07.617Z,1016.44
2019-06-26T01:53:12.071Z,1016.44
2019-06-26T01:54:16.517Z,1016.42
2019-06-26T01:55:20.934Z,1016.43
2019-06-26T01:56:25.359Z,1016.44
2019-06-26T01:57:29.758Z,1016.45
2019-06-26T01:58:34.237Z,1016.45
2019-06-26T01:59:38.668Z,1016.46
2019-06-26T02:00:43.106Z,1016.46
2019-06-26T02:01:47.552Z,1016.46
2019-06-26T02:02:51.994Z,1016.46
2019-06-26T02:03:56.438Z,1016.45
2019-06-26T02:05:00.880Z,1016.46
2019-06-26T02:06:05.394Z,1016.46
2019-06-26T02:07:09.769Z,1016.43
2019-06-26T02:08:14.277Z,1016.45
2019-06-26T02:09:18.803Z,1016.47
2019-06-26T02:10:23.170Z,1016.46
2019-06-26T02:11:27.621Z,1016.44
2019-06-26T02:12:32.044Z,1016.42
2019-06-26T02:13:36.474Z,1016.41
2019-06-26T02:14:40.908Z,1016.41
2019-06-26T02:15:45.358Z,1016.41
2019-06-26T02:16:49.809Z,1016.41
2019-06-26T02:17:54.282Z,1016.40
2019-06-26T02:18:58.773Z,1016.37
2019-06-26T02:20:03.188Z,1016.37
2019-06-26T02:21:07.639Z,1016.36
2019-06-26T02:22:12.111Z,1016.35
2019-06-26T02:23:16.517Z,1016.34
2019-06-26T02:24:23.978Z,1016.33
2019-06-26T02:25:27.612Z,1016.31
2019-06-26T02:26:32.020Z,1016.30
2019-06-26T02:27:36.445Z,1016.30
2019-06-26T02:28:40.883Z,1016.28
2019-06-26T02:29:45.336Z,1016.28
2019-06-26T02:30:49.764Z,1016.28
2019-06-26T02:31:54.241Z,1016.29
2019-06-26T02:32:58.680Z,1016.29
2019-06-26T02:34:03.113Z,1016.31
2019-06-26T02:35:09.921Z,1016.30
2019-06-26T02:36:12.008Z,1016.29
2019-06-26T02:37:16.440Z,1016.29
2019-06-26T02:38:20.828Z,1016.26
2019-06-26T02:39:25.291Z,1016.27
2019-06-26T02:40:29.775Z,1016.27
2019-06-26T02:41:34.151Z,1016.27
2019-06-26T02:42:38.649Z,1016.27
2019-06-26T02:43:43.025Z,1016.24
2019-06-26T02:44:53.795Z,1016.27
2019-06-26T02:45:52.020Z,1016.30
2019-06-26T02:47:13.616Z,1016.28
2019-06-26T02:48:00.883Z,1016.28
2019-06-26T02:49:05.354Z,1016.31
2019-06-26T02:50:09.757Z,1016.31
2019-06-26T02:51:14.199Z,1016.33
2019-06-26T02:52:18.609Z,1016.30
2019-06-26T02:53:23.045Z,1016.27
2019-06-26T02:54:27.587Z,1016.29
2019-06-26T02:55:31.977Z,1016.29
2019-06-26T02:56:36.444Z,1016.29
2019-06-26T02:57:40.838Z,1016.29
2019-06-26T02:58:45.304Z,1016.26
2019-06-26T02:59:49.736Z,1016.29
2019-06-26T03:00:54.114Z,1016.29
2019-06-26T03:01:58.502Z,1016.26
2019-06-26T03:03:02.984Z,1016.27
2019-06-26T03:04:07.397Z,1016.28
2019-06-26T03:05:11.863Z,1016.27
2019-06-26T03:06:16.277Z,1016.28
2019-06-26T03:07:20.751Z,1016.28
2019-06-26T03:08:25.248Z,1016.29
2019-06-26T03:09:29.638Z,1016.28
2019-06-26T03:10:34.065Z,1016.29
2019-06-26T03:11:38.596Z,1016.29
2019-06-26T03:12:43.064Z,1016.30
2019-06-26T03:13:47.480Z,1016.30
2019-06-26T03:15:07.517Z,1016.31
2019-06-26T03:15:56.355Z,1016.28
2019-06-26T03:17:00.776Z,1016.29
2019-06-26T03:18:05.331Z,1016.29
2019-06-26T03:19:09.774Z,1016.28
2019-06-26T03:20:14.213Z,1016.28
2019-06-26T03:21:18.635Z,1016.28
2019-06-26T03:22:23.089Z,1016.28
2019-06-26T03:23:27.571Z,1016.26
2019-06-26T03:24:32.036Z,1016.27
2019-06-26T03:25:36.460Z,1016.28
2019-06-26T03:26:40.894Z,1016.27
2019-06-26T03:27:45.348Z,1016.29
2019-06-26T03:28:49.766Z,1016.30
2019-06-26T03:29:54.144Z,1016.28
2019-06-26T03:30:58.652Z,1016.28
2019-06-26T03:32:03.175Z,1016.28
2019-06-26T03:33:07.556Z,1016.28
2019-06-26T03:34:12.024Z,1016.28
2019-06-26T03:35:16.451Z,1016.30
2019-06-26T03:36:20.891Z,1016.30
2019-06-26T03:37:25.343Z,1016.29
2019-06-26T03:38:29.808Z,1016.29
2019-06-26T03:39:34.260Z,1016.28
2019-06-26T03:40:38.674Z,1016.29
2019-06-26T03:41:43.120Z,1016.27
2019-06-26T03:42:47.548Z,1016.26
2019-06-26T03:43:52.028Z,1016.26
2019-06-26T03:44:56.463Z,1016.25
2019-06-26T03:46:00.899Z,1016.26
2019-06-26T03:47:05.338Z,1016.27
2019-06-26T03:48:09.780Z,1016.25
2019-06-26T03:49:14.192Z,1016.25
2019-06-26T03:50:18.602Z,1016.23
2019-06-26T03:51:23.047Z,1016.20
2019-06-26T03:52:27.505Z,1016.21
2019-06-26T03:53:31.997Z,1016.21
2019-06-26T03:54:36.441Z,1016.20
2019-06-26T03:55:40.856Z,1016.18
2019-06-26T03:56:45.382Z,1016.18
2019-06-26T03:57:49.787Z,1016.18
2019-06-26T03:58:54.224Z,1016.19
2019-06-26T03:59:58.701Z,1016.18
2019-06-26T04:01:03.134Z,1016.15
2019-06-26T04:02:07.575Z,1016.15
2019-06-26T04:03:12.029Z,1016.14
2019-06-26T04:04:16.552Z,1016.14
2019-06-26T04:05:21.069Z,1016.11
2019-06-26T04:06:25.580Z,1016.10
2019-06-26T04:07:30.090Z,1016.08
2019-06-26T04:08:34.522Z,1016.07
2019-06-26T04:09:38.971Z,1016.05
2019-06-26T04:10:43.700Z,1016.08
2019-06-26T04:11:47.946Z,1016.07
2019-06-26T04:12:52.507Z,1016.06
2019-06-26T04:13:56.812Z,1016.08
2019-06-26T04:15:01.282Z,1016.09
2019-06-26T04:16:05.705Z,1016.09
2019-06-26T04:17:10.159Z,1016.09
2019-06-26T04:18:14.607Z,1016.07
2019-06-26T04:19:19.061Z,1016.06
2019-06-26T04:20:23.536Z,1016.07
2019-06-26T04:21:27.989Z,1016.08
2019-06-26T04:22:32.461Z,1016.08
2019-06-26T04:23:36.894Z,1016.12
2019-06-26T04:24:41.375Z,1016.11
2019-06-26T04:25:45.833Z,1016.12
2019-06-26T04:26:50.274Z,1016.13
2019-06-26T04:27:54.726Z,1016.15
2019-06-26T04:28:59.165Z,1016.15
2019-06-26T04:30:03.654Z,1016.12
2019-06-26T04:31:08.120Z,1016.10
2019-06-26T04:32:12.563Z,1016.10
2019-06-26T04:33:17.011Z,1016.10
2019-06-26T04:34:21.516Z,1016.11
2019-06-26T04:35:25.942Z,1016.13
2019-06-26T04:36:30.396Z,1016.11
2019-06-26T04:37:34.846Z,1016.12
2019-06-26T04:38:39.289Z,1016.12
2019-06-26T04:39:43.820Z,1016.12
2019-06-26T04:40:48.283Z,1016.12
2019-06-26T04:41:52.764Z,1016.14
2019-06-26T04:42:57.170Z,1016.11
2019-06-26T04:44:01.619Z,1016.08
2019-06-26T04:45:06.058Z,1016.05
2019-06-26T04:46:10.562Z,1016.05
2019-06-26T04:47:15.050Z,1016.02
2019-06-26T04:48:19.499Z,1016.03
2019-06-26T04:49:23.950Z,1016.02
2019-06-26T04:50:28.469Z,1016.01
2019-06-26T04:51:32.951Z,1015.99
2019-06-26T04:52:37.413Z,1015.99
2019-06-26T04:53:41.848Z,1016.00
2019-06-26T04:54:46.297Z,1016.01
2019-06-26T04:55:50.788Z,1016.01
2019-06-26T04:56:55.260Z,1016.00
2019-06-26T04:57:59.751Z,1016.01
2019-06-26T04:59:04.226Z,1016.02
2019-06-26T05:00:08.774Z,1016.02
2019-06-26T05:01:13.239Z,1016.04
2019-06-26T05:02:17.671Z,1016.06
2019-06-26T05:03:22.308Z,1016.04
2019-06-26T05:04:26.639Z,1016.05
2019-06-26T05:05:39.692Z,1016.07
2019-06-26T05:06:35.613Z,1016.06
2019-06-26T05:07:40.056Z,1016.05
2019-06-26T05:08:44.534Z,1016.02
2019-06-26T05:09:49.096Z,1016.01
2019-06-26T05:10:53.646Z,1016.04
2019-06-26T05:11:58.109Z,1016.04
2019-06-26T05:13:02.605Z,1016.03
2019-06-26T05:14:07.042Z,1016.00
2019-06-26T05:15:11.541Z,1016.00
2019-06-26T05:16:20.079Z,1015.98
2019-06-26T05:17:20.446Z,1015.99
2019-06-26T05:18:24.920Z,1015.98
2019-06-26T05:19:29.424Z,1015.99
2019-06-26T05:20:33.910Z,1015.98
2019-06-26T05:21:38.398Z,1016.00
2019-06-26T05:22:42.848Z,1016.01
2019-06-26T05:23:47.350Z,1016.01
2019-06-26T05:24:51.834Z,1015.99
2019-06-26T05:25:56.338Z,1016.00
2019-06-26T05:27:00.818Z,1016.00
2019-06-26T05:28:08.275Z,1015.98
2019-06-26T05:29:09.764Z,1015.98
2019-06-26T05:30:14.285Z,1015.97
2019-06-26T05:31:18.892Z,1015.99
2019-06-26T05:32:23.305Z,1016.00
2019-06-26T05:33:27.815Z,1016.02
2019-06-26T05:34:32.382Z,1016.01
2019-06-26T05:35:36.841Z,1015.98
2019-06-26T05:36:41.361Z,1015.99
2019-06-26T05:37:45.873Z,1015.99
2019-06-26T05:38:50.417Z,1015.98
2019-06-26T05:39:54.981Z,1015.99
2019-06-26T05:40:59.343Z,1015.97
2019-06-26T05:42:06.675Z,1016.00
2019-06-26T05:43:08.505Z,1015.98
2019-06-26T05:44:13.016Z,1015.95
2019-06-26T05:45:17.533Z,1015.94
2019-06-26T05:46:31.051Z,1015.94
2019-06-26T05:47:26.690Z,1015.94
2019-06-26T05:48:31.162Z,1015.94
2019-06-26T05:49:35.667Z,1015.94
2019-06-26T05:50:40.173Z,1015.93
2019-06-26T05:51:44.715Z,1015.93
2019-06-26T05:52:49.250Z,1015.91
2019-06-26T05:53:53.823Z,1015.88
2019-06-26T05:54:58.353Z,1015.88
2019-06-26T05:56:02.881Z,1015.89
2019-06-26T05:57:07.343Z,1015.89
2019-06-26T05:58:11.953Z,1015.88
2019-06-26T05:59:16.501Z,1015.86
2019-06-26T06:00:20.956Z,1015.86
2019-06-26T06:01:25.465Z,1015.85
2019-06-26T06:02:29.946Z,1015.87
2019-06-26T06:03:34.418Z,1015.87
2019-06-26T06:04:38.923Z,1015.86
2019-06-26T06:05:43.483Z,1015.88
2019-06-26T06:06:47.983Z,1015.88
2019-06-26T06:07:52.540Z,1015.90
2019-06-26T06:08:57.146Z,1015.89
2019-06-26T06:10:01.618Z,1015.88
2019-06-26T06:11:06.201Z,1015.90
2019-06-26T06:12:10.682Z,1015.88
2019-06-26T06:13:15.204Z,1015.90
2019-06-26T06:14:19.731Z,1015.90
2019-06-26T06:15:24.358Z,1015.92
2019-06-26T06:16:28.818Z,1015.92
2019-06-26T06:17:33.401Z,1015.93
2019-06-26T06:18:37.957Z,1015.90
2019-06-26T06:19:42.568Z,1015.90
2019-06-26T06:20:47.059Z,1015.92
2019-06-26T06:21:51.694Z,1015.92
2019-06-26T06:22:56.209Z,1015.93
2019-06-26T06:24:00.778Z,1015.94
2019-06-26T06:25:05.302Z,1015.93
2019-06-26T06:26:09.834Z,1015.96
2019-06-26T06:27:14.369Z,1015.95
2019-06-26T06:28:18.953Z,1015.95
2019-06-26T06:29:23.448Z,1015.94
2019-06-26T06:30:27.941Z,1015.94
2019-06-26T06:31:32.450Z,1015.94
2019-06-26T06:32:37.054Z,1015.94
2019-06-26T06:33:41.568Z,1015.94
2019-06-26T06:34:46.149Z,1015.95
2019-06-26T06:35:50.657Z,1015.92
2019-06-26T06:36:55.172Z,1015.90
2019-06-26T06:37:59.788Z,1015.90
2019-06-26T06:39:04.313Z,1015.90
2019-06-26T06:40:08.845Z,1015.92
2019-06-26T06:41:13.464Z,1015.90
2019-06-26T06:42:17.934Z,1015.92
2019-06-26T06:43:22.421Z,1015.91
2019-06-26T06:44:27.029Z,1015.92
2019-06-26T06:45:31.535Z,1015.93
2019-06-26T06:46:36.026Z,1015.93
2019-06-26T06:47:40.604Z,1015.90
2019-06-26T06:48:45.226Z,1015.90
2019-06-26T06:49:49.782Z,1015.89
2019-06-26T06:50:54.286Z,1015.88
2019-06-26T06:51:58.863Z,1015.87
2019-06-26T06:53:03.419Z,1015.89
2019-06-26T06:54:08.006Z,1015.90
2019-06-26T06:55:12.690Z,1015.85
2019-06-26T06:56:17.106Z,1015.85
2019-06-26T06:57:21.722Z,1015.87
2019-06-26T06:58:26.235Z,1015.87
2019-06-26T06:59:30.822Z,1015.86
2019-06-26T07:00:35.317Z,1015.86
2019-06-26T07:01:39.852Z,1015.88
2019-06-26T07:02:44.364Z,1015.86
2019-06-26T07:03:48.846Z,1015.91
2019-06-26T07:04:53.330Z,1015.91
2019-06-26T07:05:57.838Z,1015.91
2019-06-26T07:07:02.374Z,1015.92
2019-06-26T07:08:06.876Z,1015.93
2019-06-26T07:09:11.444Z,1015.95
2019-06-26T07:10:15.998Z,1015.93
2019-06-26T07:11:20.436Z,1015.95
2019-06-26T07:12:25.032Z,1015.95
2019-06-26T07:13:29.537Z,1015.94
2019-06-26T07:14:34.147Z,1015.96
2019-06-26T07:15:38.685Z,1015.94
2019-06-26T07:16:43.180Z,1015.94
2019-06-26T07:17:47.708Z,1015.94
2019-06-26T07:18:52.215Z,1015.94
2019-06-26T07:19:56.773Z,1015.93
2019-06-26T07:21:01.301Z,1015.94
2019-06-26T07:22:07.360Z,1015.96
2019-06-26T07:23:10.420Z,1015.98
2019-06-26T07:24:14.912Z,1015.96
2019-06-26T07:25:19.422Z,1015.98
2019-06-26T07:26:23.937Z,1016.00
2019-06-26T07:27:28.469Z,1015.99
2019-06-26T07:28:32.995Z,1015.99
2019-06-26T07:29:37.524Z,1016.00
2019-06-26T07:30:42.056Z,1015.96
2019-06-26T07:31:46.528Z,1015.96
2019-06-26T07:32:51.083Z,1015.98
2019-06-26T07:33:56.073Z,1015.97
2019-06-26T07:35:00.220Z,1015.99
2019-06-26T07:36:04.707Z,1015.96
2019-06-26T07:37:09.203Z,1015.99
2019-06-26T07:38:13.721Z,1016.01
2019-06-26T07:39:18.247Z,1016.03
2019-06-26T07:40:22.794Z,1016.03
2019-06-26T07:41:27.341Z,1016.04
2019-06-26T07:42:31.839Z,1016.02
2019-06-26T07:43:36.456Z,1016.03
2019-06-26T07:44:40.961Z,1016.04
2019-06-26T07:45:45.507Z,1016.03
2019-06-26T07:46:50.083Z,1016.04
2019-06-26T07:47:54.558Z,1016.02
2019-06-26T07:48:59.136Z,1016.00
2019-06-26T07:50:03.760Z,1016.02
2019-06-26T07:51:08.172Z,1016.00
2019-06-26T07:52:12.691Z,1015.98
2019-06-26T07:53:17.289Z,1015.98
2019-06-26T07:54:21.851Z,1015.97
2019-06-26T07:55:26.434Z,1015.98
2019-06-26T07:56:30.973Z,1015.98
2019-06-26T07:57:35.445Z,1015.99
2019-06-26T07:58:40.093Z,1015.98
2019-06-26T07:59:44.553Z,1015.99
2019-06-26T08:00:49.114Z,1016.00
2019-06-26T08:01:53.622Z,1016.00
2019-06-26T08:02:58.158Z,1015.99
2019-06-26T08:04:02.761Z,1015.99
2019-06-26T08:05:07.341Z,1015.99
2019-06-26T08:06:11.957Z,1015.99
2019-06-26T08:07:16.464Z,1015.98
2019-06-26T08:08:21.008Z,1016.00
2019-06-26T08:09:25.464Z,1016.00
2019-06-26T08:10:29.996Z,1016.01
2019-06-26T08:11:34.538Z,1016.02
2019-06-26T08:12:38.956Z,1016.03
2019-06-26T08:13:43.533Z,1016.02
2019-06-26T08:14:48.151Z,1016.02
2019-06-26T08:15:52.632Z,1016.02
2019-06-26T08:16:57.125Z,1016.00
2019-06-26T08:18:01.771Z,1016.00
2019-06-26T08:19:06.138Z,1015.97
2019-06-26T08:20:10.656Z,1015.97
2019-06-26T08:21:15.173Z,1015.98
2019-06-26T08:22:19.731Z,1015.99
2019-06-26T08:23:24.229Z,1015.98
2019-06-26T08:24:29.105Z,1015.96
2019-06-26T08:25:33.494Z,1015.97
2019-06-26T08:26:38.118Z,1015.97
2019-06-26T08:27:42.576Z,1015.99
2019-06-26T08:28:50.029Z,1015.96
2019-06-26T08:29:53.699Z,1015.95
2019-06-26T08:30:58.178Z,1015.95
2019-06-26T08:32:02.750Z,1015.93
2019-06-26T08:33:07.167Z,1015.92
2019-06-26T08:34:11.743Z,1015.92
2019-06-26T08:35:16.289Z,1015.92
2019-06-26T08:36:20.856Z,1015.93
2019-06-26T08:37:25.402Z,1015.92
2019-06-26T08:38:29.868Z,1015.90
2019-06-26T08:39:34.383Z,1015.87
2019-06-26T08:40:38.901Z,1015.85
2019-06-26T08:41:43.356Z,1015.85
2019-06-26T08:42:47.928Z,1015.86
2019-06-26T08:43:52.440Z,1015.87
2019-06-26T08:44:56.946Z,1015.88
2019-06-26T08:46:01.414Z,1015.87
2019-06-26T08:47:06.006Z,1015.86
2019-06-26T08:48:19.262Z,1015.86
2019-06-26T08:49:24.993Z,1015.88
2019-06-26T08:50:19.638Z,1015.87
2019-06-26T08:51:24.119Z,1015.86
2019-06-26T08:52:28.648Z,1015.85
2019-06-26T08:53:33.216Z,1015.83
2019-06-26T08:54:37.756Z,1015.87
2019-06-26T08:55:42.224Z,1015.88
2019-06-26T08:56:46.777Z,1015.88
2019-06-26T08:57:51.365Z,1015.88
2019-06-26T08:58:55.950Z,1015.86
2019-06-26T09:00:00.488Z,1015.84
2019-06-26T09:01:05.002Z,1015.89
2019-06-26T09:02:09.429Z,1015.88
2019-06-26T09:03:14.030Z,1015.88
2019-06-26T09:04:18.568Z,1015.87
2019-06-26T09:05:23.031Z,1015.88
2019-06-26T09:06:27.622Z,1015.88
2019-06-26T09:07:32.236Z,1015.90
2019-06-26T09:08:36.761Z,1015.91
2019-06-26T09:09:41.358Z,1015.92
2019-06-26T09:10:45.852Z,1015.92
2019-06-26T09:11:50.449Z,1015.93
2019-06-26T09:12:54.939Z,1015.93
2019-06-26T09:13:59.525Z,1015.93
2019-06-26T09:15:04.144Z,1015.94
2019-06-26T09:16:08.608Z,1015.96
2019-06-26T09:17:13.176Z,1015.92
2019-06-26T09:18:31.140Z,1015.94
2019-06-26T09:19:22.293Z,1015.95
2019-06-26T09:20:26.843Z,1015.96
2019-06-26T09:21:31.605Z,1015.98
2019-06-26T09:22:35.898Z,1015.96
2019-06-26T09:23:40.324Z,1015.97
2019-06-26T09:24:44.930Z,1016.00
2019-06-26T09:25:49.855Z,1016.01
2019-06-26T09:26:53.959Z,1015.99
2019-06-26T09:27:58.469Z,1016.00
2019-06-26T09:29:03.018Z,1016.02
2019-06-26T09:30:07.571Z,1016.03
2019-06-26T09:31:12.124Z,1016.06
2019-06-26T09:32:16.649Z,1016.05
2019-06-26T09:33:21.203Z,1016.05
2019-06-26T09:34:25.759Z,1016.05
2019-06-26T09:35:30.349Z,1016.06
2019-06-26T09:36:34.858Z,1016.04
2019-06-26T09:37:39.295Z,1016.03
2019-06-26T09:38:43.893Z,1016.04
2019-06-26T09:39:48.463Z,1016.02
2019-06-26T09:40:53.019Z,1016.04
2019-06-26T09:41:57.536Z,1016.04
2019-06-26T09:43:02.057Z,1016.03
2019-06-26T09:44:06.692Z,1016.06
2019-06-26T09:45:11.179Z,1016.04
2019-06-26T09:46:15.720Z,1016.05
2019-06-26T09:47:20.249Z,1016.04
2019-06-26T09:48:24.717Z,1016.07
2019-06-26T09:49:29.332Z,1016.01
2019-06-26T09:50:33.867Z,1016.04
2019-06-26T09:51:38.505Z,1016.04
2019-06-26T09:52:42.969Z,1016.02
2019-06-26T09:53:48.076Z,1016.03
2019-06-26T09:54:52.052Z,1016.00
2019-06-26T09:55:56.491Z,1015.97
2019-06-26T09:57:01.255Z,1016.00
2019-06-26T09:58:05.680Z,1015.93
2019-06-26T09:59:10.175Z,1015.97
2019-06-26T10:00:14.762Z,1015.91
2019-06-26T10:01:19.182Z,1015.94
2019-06-26T10:02:23.824Z,1015.90
2019-06-26T10:03:28.414Z,1015.90
2019-06-26T10:04:32.920Z,1015.95
2019-06-26T10:05:37.431Z,1015.92
2019-06-26T10:06:41.992Z,1015.87
2019-06-26T10:07:46.523Z,1015.89
2019-06-26T10:08:54.144Z,1015.89
2019-06-26T10:09:55.927Z,1015.87
2019-06-26T10:11:00.206Z,1015.85
2019-06-26T10:12:04.749Z,1015.85
2019-06-26T10:13:09.277Z,1015.88
2019-06-26T10:14:13.818Z,1015.88
2019-06-26T10:15:18.429Z,1015.93
2019-06-26T10:16:22.938Z,1015.93
2019-06-26T10:17:27.462Z,1015.94
2019-06-26T10:18:32.024Z,1015.95
2019-06-26T10:19:36.584Z,1015.89
2019-06-26T10:20:41.134Z,1015.90
2019-06-26T10:21:45.789Z,1015.94
2019-06-26T10:22:50.260Z,1015.97
2019-06-26T10:23:54.856Z,1015.97
2019-06-26T10:24:59.347Z,1015.91
2019-06-26T10:26:03.878Z,1015.93
2019-06-26T10:27:08.517Z,1015.94
2019-06-26T10:28:13.050Z,1015.90
2019-06-26T10:29:17.602Z,1015.97
2019-06-26T10:30:22.226Z,1015.99
2019-06-26T10:31:26.735Z,1015.99
2019-06-26T10:32:31.174Z,1016.00
2019-06-26T10:33:35.620Z,1016.01
2019-06-26T10:34:40.183Z,1016.02
2019-06-26T10:35:44.764Z,1016.00
2019-06-26T10:36:49.399Z,1016.00
2019-06-26T10:37:53.900Z,1015.99
2019-06-26T10:38:58.465Z,1015.97
2019-06-26T10:40:02.994Z,1016.02
2019-06-26T10:41:07.576Z,1016.03
2019-06-26T10:42:12.107Z,1015.98
2019-06-26T10:43:16.633Z,1016.01
2019-06-26T10:44:21.208Z,1016.04
2019-06-26T10:45:25.758Z,1016.01
2019-06-26T10:46:30.303Z,1016.03
2019-06-26T10:47:34.872Z,1016.04
2019-06-26T10:48:39.414Z,1015.99
2019-06-26T10:49:43.947Z,1016.03
2019-06-26T10:50:56.890Z,1016.00
2019-06-26T10:51:53.054Z,1016.03
2019-06-26T10:52:57.466Z,1015.99
2019-06-26T10:54:02.067Z,1015.98
2019-06-26T10:55:06.606Z,1015.97
2019-06-26T10:56:11.059Z,1016.00
2019-06-26T10:57:15.555Z,1016.01
2019-06-26T10:58:20.155Z,1015.99
2019-06-26T10:59:24.699Z,1015.98
2019-06-26T11:00:29.313Z,1015.92
2019-06-26T11:01:33.887Z,1015.96
2019-06-26T11:02:38.416Z,1015.94
2019-06-26T11:03:43.000Z,1015.97
2019-06-26T11:04:47.551Z,1015.99
2019-06-26T11:05:52.168Z,1015.99
2019-06-26T11:06:56.722Z,1015.97
2019-06-26T11:08:01.229Z,1016.02
2019-06-26T11:09:05.804Z,1015.97
2019-06-26T11:10:10.361Z,1016.02
2019-06-26T11:11:14.900Z,1016.00
2019-06-26T11:12:19.445Z,1016.02
2019-06-26T11:13:24.001Z,1015.99
2019-06-26T11:14:28.481Z,1015.97
2019-06-26T11:15:33.214Z,1015.98
2019-06-26T11:16:37.667Z,1015.99
2019-06-26T11:17:42.194Z,1016.02
2019-06-26T11:18:46.772Z,1015.93
2019-06-26T11:19:55.138Z,1015.99
2019-06-26T11:20:55.919Z,1015.98
2019-06-26T11:22:00.388Z,1015.98
2019-06-26T11:23:04.893Z,1015.99
2019-06-26T11:24:09.493Z,1016.00
2019-06-26T11:25:14.024Z,1015.99
2019-06-26T11:26:18.617Z,1015.98
2019-06-26T11:27:23.194Z,1015.97
2019-06-26T11:28:27.857Z,1015.98
2019-06-26T11:29:32.379Z,1016.02
2019-06-26T11:30:36.934Z,1016.00
2019-06-26T11:31:41.521Z,1015.97
2019-06-26T11:32:46.087Z,1016.04
2019-06-26T11:33:50.676Z,1016.02
2019-06-26T11:34:55.224Z,1016.02
2019-06-26T11:35:59.789Z,1016.03
2019-06-26T11:37:04.855Z,1016.06
2019-06-26T11:38:08.966Z,1016.04
2019-06-26T11:39:13.430Z,1016.04
2019-06-26T11:40:18.025Z,1016.03
2019-06-26T11:41:22.522Z,1016.04
2019-06-26T11:42:27.155Z,1016.07
2019-06-26T11:43:31.653Z,1016.12
2019-06-26T11:44:36.171Z,1016.14
2019-06-26T11:45:40.716Z,1016.10
2019-06-26T11:46:45.292Z,1016.08
2019-06-26T11:47:49.847Z,1016.08
2019-06-26T11:48:54.527Z,1016.10
2019-06-26T11:50:00.402Z,1016.12
2019-06-26T11:51:03.405Z,1016.16
2019-06-26T11:52:08.003Z,1016.16
2019-06-26T11:53:12.601Z,1016.16
2019-06-26T11:54:17.195Z,1016.15
2019-06-26T11:55:21.738Z,1016.12
2019-06-26T11:56:26.289Z,1016.13
2019-06-26T11:57:30.897Z,1016.11
2019-06-26T11:58:35.473Z,1016.11
2019-06-26T11:59:39.996Z,1016.11
2019-06-26T12:00:44.647Z,1016.11
2019-06-26T12:01:49.117Z,1016.10
2019-06-26T12:02:53.784Z,1016.10
2019-06-26T12:03:58.244Z,1016.10
2019-06-26T12:05:02.811Z,1016.07
2019-06-26T12:06:15.722Z,1016.07
2019-06-26T12:07:11.964Z,1016.11
2019-06-26T12:08:18.566Z,1016.13
2019-06-26T12:09:21.044Z,1016.11
2019-06-26T12:10:25.626Z,1016.06
2019-06-26T12:11:30.208Z,1016.02
2019-06-26T12:12:34.670Z,1016.05
2019-06-26T12:13:39.221Z,1016.13
2019-06-26T12:14:43.777Z,1016.07
2019-06-26T12:15:48.271Z,1016.01
2019-06-26T12:16:52.815Z,1016.01
2019-06-26T12:17:57.431Z,1016.00
2019-06-26T12:19:01.977Z,1016.00
2019-06-26T12:20:17.920Z,1016.06
2019-06-26T12:21:11.094Z,1016.11
2019-06-26T12:22:15.716Z,1016.06
2019-06-26T12:23:20.243Z,1016.08
2019-06-26T12:24:26.624Z,1016.09
2019-06-26T12:25:29.346Z,1016.14
2019-06-26T12:26:33.835Z,1016.17
2019-06-26T12:27:38.448Z,1016.17
2019-06-26T12:28:43.003Z,1016.18
2019-06-26T12:29:47.645Z,1016.18
2019-06-26T12:30:52.192Z,1016.15
2019-06-26T12:31:56.735Z,1016.12
2019-06-26T12:33:03.482Z,1016.13
2019-06-26T12:34:05.816Z,1016.15
2019-06-26T12:35:10.393Z,1016.20
2019-06-26T12:36:15.017Z,1016.18
2019-06-26T12:37:19.501Z,1016.18
2019-06-26T12:38:24.084Z,1016.13
2019-06-26T12:39:28.626Z,1016.15
2019-06-26T12:40:33.205Z,1016.10
2019-06-26T12:41:37.749Z,1016.14
2019-06-26T12:42:42.342Z,1016.13
2019-06-26T12:43:46.970Z,1016.09
2019-06-26T12:44:51.484Z,1016.14
2019-06-26T12:45:56.088Z,1016.13
2019-06-26T12:47:00.483Z,1016.12
2019-06-26T12:48:05.116Z,1016.14
2019-06-26T12:49:09.668Z,1016.08
2019-06-26T12:50:14.217Z,1016.11
2019-06-26T12:51:18.774Z,1016.11
2019-06-26T12:52:23.316Z,1016.14
2019-06-26T12:53:27.887Z,1016.13
2019-06-26T12:54:32.417Z,1016.17
2019-06-26T12:55:36.988Z,1016.18
2019-06-26T12:56:41.638Z,1016.15
2019-06-26T12:57:46.092Z,1016.12
2019-06-26T12:58:50.701Z,1016.11
2019-06-26T12:59:57.670Z,1016.15